Time;durP1;ratioP1;P1;durP2;ratioP2;P2;SDS_P1;SDS_P2;PMS_P1;PMS_P2;Temp;Humidity;BMP_temperature;BMP_pressure;BME280_temperature;BME280_humidity;BME280_pressure;Samples;Min_cycle;Max_cycle;Signal;HPM_P1;HPM_P2
2023/04/23 00:01:58;;;;;;;5.20;3.70;;;;;;;13.37;77.35;98774.72;6135367;23;20201;-83
2023/04/23 00:04:25;;;;;;;5.87;3.70;;;;;;;13.39;77.72;98769.09;6111671;23;20253;-82
2023/04/23 00:06:52;;;;;;;6.13;3.63;;;;;;;13.33;77.71;98770.94;6111496;23;20666;-82
2023/04/23 00:09:25;;;;;;;5.47;3.40;;;;;;;13.29;78.19;98769.03;6184617;23;20253;-82
2023/04/23 00:11:52;;;;;;;4.60;3.93;;;;;;;13.23;78.41;98765.47;6111295;23;20162;-83
2023/04/23 00:14:19;;;;;;;4.27;3.83;;;;;;;13.31;78.33;98764.19;6135460;23;20205;-83
2023/04/23 00:16:46;;;;;;;7.40;3.67;;;;;;;13.26;78.44;98756.88;6110850;23;20181;-83
2023/04/23 00:19:13;;;;;;;7.17;3.40;;;;;;;13.16;79.24;98757.59;6111207;23;20173;-83
2023/04/23 00:21:40;;;;;;;5.93;3.60;;;;;;;13.12;79.46;98751.13;6111103;23;20282;-83
2023/04/23 00:24:06;;;;;;;3.93;3.50;;;;;;;13.08;79.69;98752.69;6135387;23;20228;-84
2023/04/23 00:26:33;;;;;;;5.47;3.53;;;;;;;13.03;80.49;98749.13;6110711;23;20178;-83
2023/04/23 00:29:00;;;;;;;6.70;3.60;;;;;;;13.00;80.75;98746.97;6110878;23;20170;-83
2023/04/23 00:31:28;;;;;;;4.20;3.73;;;;;;;12.97;80.86;98742.91;6110943;23;20190;-83
2023/04/23 00:33:54;;;;;;;5.43;3.60;;;;;;;12.93;81.20;98744.47;6110655;23;20223;-83
2023/04/23 00:36:21;;;;;;;4.77;3.60;;;;;;;12.88;81.73;98738.28;6135244;23;20181;-83
2023/04/23 00:38:49;;;;;;;5.80;3.87;;;;;;;12.84;82.01;98740.63;6111024;23;20197;-83
2023/04/23 00:41:16;;;;;;;5.13;3.63;;;;;;;12.80;82.30;98748.41;6110665;23;20218;-84
2023/04/23 00:43:43;;;;;;;6.57;3.57;;;;;;;12.77;82.67;98740.88;6110577;23;20197;-82
2023/04/23 00:46:10;;;;;;;4.20;3.43;;;;;;;12.80;82.75;98744.91;6110830;23;20284;-83
2023/04/23 00:48:37;;;;;;;4.20;3.40;;;;;;;12.72;83.65;98738.13;6134600;23;20177;-83
2023/04/23 00:51:05;;;;;;;3.93;3.20;;;;;;;12.63;84.21;98734.28;6110869;23;20226;-83
2023/04/23 00:53:32;;;;;;;7.30;3.33;;;;;;;12.63;84.73;98741.53;6110509;23;20208;-83
2023/04/23 00:56:01;;;;;;;5.30;3.73;;;;;;;12.56;85.13;98738.22;6111247;23;20172;-82
2023/04/23 00:58:28;;;;;;;6.03;3.73;;;;;;;12.51;85.88;98738.97;6134921;23;20256;-83
2023/04/23 01:00:55;;;;;;;6.23;3.60;;;;;;;12.46;86.02;98740.84;6135231;23;20230;-83
2023/04/23 01:03:24;;;;;;;5.00;3.70;;;;;;;12.42;86.73;98742.38;6110689;23;20176;-83
2023/04/23 01:05:51;;;;;;;5.60;4.10;;;;;;;12.49;86.89;98740.31;6110989;23;20674;-83
2023/04/23 01:08:20;;;;;;;5.13;4.00;;;;;;;12.40;88.16;98742.66;6109737;23;20678;-82
2023/04/23 01:10:48;;;;;;;5.50;4.13;;;;;;;12.29;89.25;98738.22;6134847;23;20182;-83
2023/04/23 01:13:15;;;;;;;4.77;4.10;;;;;;;12.28;89.63;98733.91;6134454;23;20172;-82
2023/04/23 01:15:43;;;;;;;5.90;4.10;;;;;;;12.09;90.98;98725.38;6110445;23;20181;-83
2023/04/23 01:18:13;;;;;;;5.60;3.83;;;;;;;12.01;91.86;98730.38;6158871;23;20171;-83
2023/04/23 01:20:40;;;;;;;5.63;4.23;;;;;;;11.91;92.79;98725.69;6135193;23;20172;-82
2023/04/23 01:23:06;;;;;;;6.97;4.40;;;;;;;11.84;94.21;98731.25;6134603;23;20243;-84
2023/04/23 01:25:34;;;;;;;4.37;3.97;;;;;;;11.78;95.32;98728.75;6111031;23;20196;-83
2023/04/23 01:28:01;;;;;;;4.90;3.90;;;;;;;11.66;96.67;98730.72;6134711;23;20643;-83
2023/04/23 01:30:28;;;;;;;5.53;3.93;;;;;;;11.68;97.99;98732.06;6135008;23;20258;-83
2023/04/23 01:32:55;;;;;;;6.00;3.90;;;;;;;11.69;98.95;98731.03;6135141;23;20687;-83
2023/04/23 01:35:22;;;;;;;4.57;4.13;;;;;;;11.55;100.00;98731.63;6134732;23;20176;-83
2023/04/23 01:37:50;;;;;;;4.93;4.23;;;;;;;11.52;100.00;98735.63;6134684;23;20169;-83
2023/04/23 01:40:18;;;;;;;4.90;3.97;;;;;;;11.31;100.00;98726.47;6134898;23;20254;-82
2023/04/23 01:42:45;;;;;;;4.33;3.93;;;;;;;11.23;100.00;98729.56;6134444;23;20190;-85
2023/04/23 01:45:12;;;;;;;4.50;4.10;;;;;;;11.13;100.00;98726.72;6159277;23;20170;-83
2023/04/23 01:47:40;;;;;;;4.43;3.90;;;;;;;11.12;100.00;98725.09;6158689;23;20192;-82
2023/04/23 01:50:08;;;;;;;5.37;4.27;;;;;;;10.94;100.00;98726.16;6110482;23;20558;-83
2023/04/23 01:52:35;;;;;;;6.33;4.63;;;;;;;10.87;100.00;98724.72;6134872;23;20181;-82
2023/04/23 01:55:02;;;;;;;4.70;4.17;;;;;;;10.75;100.00;98726.63;6134896;23;20201;-84
2023/04/23 01:57:29;;;;;;;5.33;4.80;;;;;;;10.50;100.00;98719.78;6110244;23;20201;-83
2023/04/23 02:00:03;;;;;;;5.10;4.50;;;;;;;10.43;100.00;98729.84;6110406;23;20234;-83
2023/04/23 02:02:38;;;;;;;5.27;4.47;;;;;;;10.35;100.00;98727.56;6138053;23;20507;-83
2023/04/23 02:05:19;;;;;;;6.10;4.63;;;;;;;10.30;100.00;98734.69;6134934;23;20169;-84
2023/04/23 02:07:48;;;;;;;6.17;4.97;;;;;;;10.24;100.00;98733.75;6135799;23;20242;-82
2023/04/23 02:10:15;;;;;;;5.00;4.50;;;;;;;10.12;100.00;98735.66;6134450;23;20178;-83
2023/04/23 02:12:42;;;;;;;5.07;4.53;;;;;;;10.01;100.00;98736.50;6110051;23;20170;-82
2023/04/23 02:15:10;;;;;;;6.17;5.10;;;;;;;9.93;100.00;98731.53;6134982;23;20174;-82
2023/04/23 02:17:38;;;;;;;5.53;5.03;;;;;;;9.85;100.00;98731.88;6135332;23;20177;-83
2023/04/23 02:20:09;;;;;;;5.90;5.30;;;;;;;9.81;100.00;98728.03;6112561;23;20174;-82
2023/04/23 02:22:40;;;;;;;5.63;5.07;;;;;;;9.73;100.00;98724.69;6112455;23;20201;-82
2023/04/23 02:25:07;;;;;;;6.37;5.23;;;;;;;9.68;100.00;98729.13;6112282;23;20197;-83
2023/04/23 02:27:34;;;;;;;6.77;5.20;;;;;;;9.68;100.00;98729.94;6136381;23;20194;-83
2023/04/23 02:30:02;;;;;;;8.67;5.60;;;;;;;9.56;100.00;98725.66;6112123;23;20189;-82
2023/04/23 02:32:29;;;;;;;7.50;5.27;;;;;;;9.53;100.00;98726.94;6112083;23;20702;-81
2023/04/23 02:34:57;;;;;;;6.73;5.60;;;;;;;9.49;100.00;98725.78;6136624;23;20632;-82
2023/04/23 02:37:25;;;;;;;6.43;5.63;;;;;;;9.39;100.00;98722.88;6136485;23;20173;-83
2023/04/23 02:39:52;;;;;;;5.97;5.47;;;;;;;9.34;100.00;98724.63;6136639;23;20689;-83
2023/04/23 02:42:19;;;;;;;6.87;5.40;;;;;;;9.31;100.00;98725.09;6136464;23;20217;-82
2023/04/23 02:44:46;;;;;;;6.20;5.37;;;;;;;9.31;100.00;98727.78;6112517;23;20174;-83
2023/04/23 02:47:13;;;;;;;7.00;5.97;;;;;;;9.27;100.00;98730.09;6111686;23;20194;-83
2023/04/23 02:49:39;;;;;;;6.57;5.90;;;;;;;9.17;100.00;98729.84;6112224;23;20209;-83
2023/04/23 02:52:06;;;;;;;7.83;6.13;;;;;;;9.22;100.00;98725.44;6136219;23;20261;-83
2023/04/23 02:54:33;;;;;;;7.87;5.73;;;;;;;9.21;100.00;98726.50;6111807;23;20174;-82
2023/04/23 02:57:00;;;;;;;6.77;6.13;;;;;;;9.16;100.00;98723.69;6136465;23;20204;-82
2023/04/23 02:59:27;;;;;;;6.67;5.90;;;;;;;9.03;100.00;98729.28;6160508;23;20170;-84
2023/04/23 03:01:54;;;;;;;6.73;6.03;;;;;;;8.91;100.00;98728.47;6136065;23;20186;-82
2023/04/23 03:04:21;;;;;;;6.90;6.00;;;;;;;8.91;100.00;98728.47;6135814;23;20174;-82
2023/04/23 03:06:48;;;;;;;7.80;6.43;;;;;;;8.83;100.00;98724.25;6135948;23;20174;-85
2023/04/23 03:09:15;;;;;;;7.03;6.33;;;;;;;8.74;100.00;98724.81;6112092;23;20194;-82
2023/04/23 03:11:42;;;;;;;8.60;6.03;;;;;;;8.69;100.00;98725.50;6160377;23;20198;-82
2023/04/23 03:14:11;;;;;;;7.20;6.60;;;;;;;8.64;100.00;98722.69;6136692;23;20177;-82
2023/04/23 03:16:38;;;;;;;7.13;6.17;;;;;;;8.61;100.00;98715.16;6136356;23;20166;-84
2023/04/23 03:19:05;;;;;;;6.87;6.27;;;;;;;8.56;100.00;98717.69;6135548;23;20173;-83
2023/04/23 03:21:32;;;;;;;6.70;6.10;;;;;;;8.54;100.00;98721.66;6136088;23;20185;-85
2023/04/23 03:23:58;;;;;;;7.53;6.10;;;;;;;8.47;100.00;98721.75;6124929;23;20226;-84
2023/04/23 03:26:25;;;;;;;7.97;6.13;;;;;;;8.45;100.00;98721.13;6135864;23;20202;-84
2023/04/23 03:28:52;;;;;;;6.83;6.10;;;;;;;8.43;100.00;98719.75;6110999;23;20170;-82
2023/04/23 03:31:19;;;;;;;6.80;6.20;;;;;;;8.45;100.00;98726.47;6111626;23;20192;-84
2023/04/23 03:33:46;;;;;;;7.00;6.30;;;;;;;8.41;100.00;98727.97;6135327;23;20163;-83
2023/04/23 03:36:17;;;;;;;6.90;6.20;;;;;;;8.43;100.00;98725.91;6113127;23;20179;-84
2023/04/23 03:38:44;;;;;;;7.90;6.70;;;;;;;8.30;100.00;98723.44;6111547;23;20245;-82
2023/04/23 03:41:11;;;;;;;7.80;7.00;;;;;;;8.19;100.00;98727.66;6111403;23;20194;-83
2023/04/23 03:43:38;;;;;;;7.63;6.50;;;;;;;8.19;100.00;98726.81;6135408;23;20166;-82
2023/04/23 03:46:18;;;;;;;7.20;6.50;;;;;;;8.26;100.00;98732.88;6116773;23;20190;-82
2023/04/23 03:48:45;;;;;;;7.10;6.40;;;;;;;8.35;100.00;98732.38;6111472;23;20245;-83
2023/04/23 03:51:20;;;;;;;8.27;7.30;;;;;;;8.33;100.00;98728.31;6137204;23;20170;-83
2023/04/23 03:53:48;;;;;;;9.03;6.63;;;;;;;8.28;100.00;98734.28;6111334;23;20201;-84
2023/04/23 03:56:27;;;;;;;8.13;7.33;;;;;;;8.25;100.00;98740.09;6151041;23;20163;-82
2023/04/23 03:59:10;;;;;;;8.47;6.60;;;;;;;8.22;100.00;98737.84;6117730;23;20178;-83
2023/04/23 04:01:37;;;;;;;9.10;7.00;;;;;;;8.23;100.00;98742.16;6135358;23;20224;-84
2023/04/23 04:04:03;;;;;;;7.57;6.87;;;;;;;8.14;100.00;98737.34;6110922;23;20567;-84
2023/04/23 04:06:32;;;;;;;8.77;7.17;;;;;;;8.11;100.00;98735.97;6111738;23;20170;-83
2023/04/23 04:08:58;;;;;;;7.70;7.00;;;;;;;8.03;100.00;98738.09;6134999;23;20257;-83
2023/04/23 04:11:25;;;;;;;7.80;7.00;;;;;;;8.03;100.00;98736.25;6111160;23;20189;-85
2023/04/23 04:13:52;;;;;;;9.73;7.33;;;;;;;8.05;100.00;98731.53;6135677;23;20253;-83
2023/04/23 04:16:19;;;;;;;7.37;6.63;;;;;;;8.04;100.00;98737.88;6135937;23;20249;-82
2023/04/23 04:18:45;;;;;;;8.67;7.77;;;;;;;8.08;100.00;98740.91;6135580;23;20174;-82
2023/04/23 04:21:12;;;;;;;8.73;7.27;;;;;;;8.05;100.00;98731.53;6110799;23;20170;-81
2023/04/23 04:23:39;;;;;;;7.67;6.93;;;;;;;8.09;100.00;98739.88;6110893;23;20284;-83
2023/04/23 04:26:06;;;;;;;7.70;6.93;;;;;;;8.18;100.00;98746.53;6110795;23;20170;-82
2023/04/23 04:28:35;;;;;;;7.97;6.77;;;;;;;8.30;100.00;98744.78;6110981;23;20174;-83
2023/04/23 04:31:05;;;;;;;7.60;6.90;;;;;;;8.34;100.00;98746.78;6135101;23;20209;-83
2023/04/23 04:33:34;;;;;;;8.40;7.33;;;;;;;8.36;100.00;98747.34;6110840;23;20166;-82
2023/04/23 04:36:01;;;;;;;7.97;7.17;;;;;;;8.54;100.00;98756.34;6135671;23;20170;-82
2023/04/23 04:38:28;;;;;;;8.17;7.23;;;;;;;8.69;100.00;98757.53;6159640;23;20174;-83
2023/04/23 04:40:58;;;;;;;7.60;6.90;;;;;;;8.83;100.00;98752.81;6135776;23;20159;-84
2023/04/23 04:43:25;;;;;;;8.03;7.23;;;;;;;8.99;100.00;98759.34;6111861;23;20190;-83
2023/04/23 04:45:52;;;;;;;7.33;6.63;;;;;;;9.13;100.00;98758.91;6110840;23;20669;-83
2023/04/23 04:48:19;;;;;;;8.00;7.10;;;;;;;9.29;100.00;98768.09;6110720;23;20174;-84
2023/04/23 04:50:46;;;;;;;8.47;6.53;;;;;;;9.45;100.00;98761.25;6110654;23;20256;-83
2023/04/23 04:53:12;;;;;;;8.90;6.73;;;;;;;9.57;100.00;98760.19;6159335;23;20193;-83
2023/04/23 04:55:40;;;;;;;7.57;6.63;;;;;;;9.81;100.00;98766.31;6134769;23;20171;-84
2023/04/23 04:58:07;;;;;;;7.37;6.67;;;;;;;9.89;100.00;98762.47;6135003;23;20221;-81
2023/04/23 05:00:33;;;;;;;7.23;6.63;;;;;;;10.00;100.00;98775.81;6110528;23;20221;-82
2023/04/23 05:03:00;;;;;;;6.80;6.13;;;;;;;10.17;100.00;98778.63;6134302;23;20193;-81
2023/04/23 05:05:27;;;;;;;7.10;6.50;;;;;;;10.31;100.00;98774.56;6135072;23;20173;-82
2023/04/23 05:07:54;;;;;;;7.10;6.07;;;;;;;10.50;100.00;98778.69;6134366;23;20170;-83
2023/04/23 05:10:20;;;;;;;8.10;6.70;;;;;;;10.72;100.00;98781.53;6134546;23;20252;-84
2023/04/23 05:12:47;;;;;;;8.10;6.50;;;;;;;10.92;100.00;98784.53;6134458;23;20828;-82
2023/04/23 05:15:14;;;;;;;8.20;6.10;;;;;;;11.11;100.00;98798.53;6159046;23;20166;-83
2023/04/23 05:17:41;;;;;;;8.90;6.50;;;;;;;11.17;100.00;98792.19;6158739;23;20177;-82
2023/04/23 05:20:11;;;;;;;6.93;6.20;;;;;;;11.39;100.00;98784.22;6134457;23;20260;-83
2023/04/23 05:22:41;;;;;;;6.47;5.87;;;;;;;11.60;100.00;98794.22;6111441;23;20178;-82
2023/04/23 05:25:08;;;;;;;8.07;6.00;;;;;;;11.78;100.00;98791.28;6110372;23;20224;-82
2023/04/23 05:27:35;;;;;;;7.20;5.93;;;;;;;11.92;100.00;98794.41;6109962;23;20629;-82
2023/04/23 05:30:03;;;;;;;7.60;5.70;;;;;;;12.14;100.00;98792.56;6134381;23;20261;-82
2023/04/23 05:32:30;;;;;;;6.70;6.00;;;;;;;12.26;100.00;98790.56;6109889;23;20177;-82
2023/04/23 05:34:58;;;;;;;7.70;5.40;;;;;;;12.43;100.00;98785.13;6134312;23;20256;-82
2023/04/23 05:37:25;;;;;;;6.10;5.53;;;;;;;12.66;100.00;98792.06;6110637;23;20174;-82
2023/04/23 05:39:52;;;;;;;8.97;6.03;;;;;;;12.84;100.00;98794.41;6134734;23;20185;-82
2023/04/23 05:42:19;;;;;;;6.57;5.57;;;;;;;13.03;100.00;98801.03;6110146;23;20247;-82
2023/04/23 05:44:45;;;;;;;6.17;5.37;;;;;;;13.19;100.00;98804.72;6109635;23;20257;-82
2023/04/23 05:47:13;;;;;;;6.33;5.73;;;;;;;13.40;100.00;98801.09;6134283;23;20196;-85
2023/04/23 05:49:40;;;;;;;7.13;6.17;;;;;;;13.49;100.00;98799.56;6134019;23;20174;-83
2023/04/23 05:52:06;;;;;;;6.87;5.90;;;;;;;13.63;100.00;98795.34;6133914;23;20256;-82
2023/04/23 05:54:33;;;;;;;6.33;5.67;;;;;;;13.82;100.00;98805.69;6109751;23;20181;-83
2023/04/23 05:57:00;;;;;;;6.37;5.77;;;;;;;13.93;100.00;98810.06;6134657;23;20171;-83
2023/04/23 05:59:26;;;;;;;6.43;5.90;;;;;;;14.05;100.00;98803.41;6134043;23;20682;-83
2023/04/23 06:01:53;;;;;;;7.23;5.53;;;;;;;14.18;100.00;98807.53;6134387;23;20587;-82
2023/04/23 06:04:20;;;;;;;5.97;5.47;;;;;;;14.25;100.00;98805.38;6110192;23;20199;-82
2023/04/23 06:06:47;;;;;;;6.37;5.60;;;;;;;14.39;100.00;98803.84;6134231;23;20514;-82
2023/04/23 06:09:14;;;;;;;7.17;5.90;;;;;;;14.50;100.00;98802.00;6109821;23;20271;-83
2023/04/23 06:11:40;;;;;;;5.97;5.33;;;;;;;14.62;100.00;98810.66;6159228;23;20163;-82
2023/04/23 06:14:07;;;;;;;6.47;5.70;;;;;;;14.78;100.00;98815.03;6184742;23;20192;-82
2023/04/23 06:16:34;;;;;;;7.57;5.70;;;;;;;14.95;100.00;98815.59;6158621;23;20172;-84
2023/04/23 06:19:02;;;;;;;5.90;5.30;;;;;;;15.11;100.00;98819.13;6158794;23;20162;-83
2023/04/23 06:21:29;;;;;;;5.67;5.07;;;;;;;15.17;100.00;98815.34;6134403;23;20263;-82
2023/04/23 06:23:56;;;;;;;6.07;5.47;;;;;;;15.35;100.00;98814.81;6144283;23;20241;-82
2023/04/23 06:26:22;;;;;;;5.53;5.03;;;;;;;15.51;100.00;98820.25;6134227;23;20617;-82
2023/04/23 06:28:50;;;;;;;5.47;4.97;;;;;;;15.68;100.00;98821.56;6158578;23;20170;-82
2023/04/23 06:31:27;;;;;;;6.77;5.30;;;;;;;15.88;100.00;98822.63;6160634;23;20174;-82
2023/04/23 06:33:54;;;;;;;5.77;5.10;;;;;;;16.00;100.00;98815.03;6158835;23;20165;-82
2023/04/23 06:36:21;;;;;;;7.17;5.20;;;;;;;16.11;100.00;98820.13;6184575;23;20205;-82
2023/04/23 06:38:48;;;;;;;5.57;5.00;;;;;;;16.25;100.00;98814.94;6158700;23;20411;-82
2023/04/23 06:41:14;;;;;;;5.60;5.10;;;;;;;16.33;100.00;98817.06;6134154;23;20173;-82
2023/04/23 06:43:41;;;;;;;5.90;4.80;;;;;;;16.50;95.06;98805.94;6158105;23;20312;-82
2023/04/23 06:46:19;;;;;;;5.37;4.87;;;;;;;16.54;93.75;98805.09;6138671;23;20190;-82
2023/04/23 06:48:46;;;;;;;7.73;5.30;;;;;;;16.67;93.31;98804.50;6158161;23;20177;-82
2023/04/23 06:51:13;;;;;;;6.87;5.03;;;;;;;16.82;93.75;98806.34;6134039;23;20266;-81
2023/04/23 06:53:40;;;;;;;6.30;4.97;;;;;;;16.84;94.29;98811.47;6133619;23;20171;-81
2023/04/23 06:56:07;;;;;;;5.73;5.13;;;;;;;16.64;94.28;98812.38;6134060;23;20175;-82
2023/04/23 06:58:34;;;;;;;6.30;5.70;;;;;;;16.37;95.31;98806.53;6133923;23;20167;-82
2023/04/23 07:01:10;;;;;;;5.93;5.03;;;;;;;16.69;95.21;98807.75;6160438;23;20257;-82
2023/04/23 07:03:37;;;;;;;6.93;5.40;;;;;;;16.82;94.09;98810.94;6158727;23;20194;-82
2023/04/23 07:06:04;;;;;;;5.90;5.17;;;;;;;16.94;93.72;98808.69;6184719;23;20170;-82
2023/04/23 07:08:31;;;;;;;7.07;5.13;;;;;;;17.21;91.83;98813.66;6159819;23;20166;-83
2023/04/23 07:10:58;;;;;;;5.63;5.10;;;;;;;17.37;90.56;98805.13;6159774;23;20179;-82
2023/04/23 07:13:24;;;;;;;6.20;5.57;;;;;;;17.41;90.02;98808.88;6135870;23;20178;-81
2023/04/23 07:15:51;;;;;;;6.10;5.50;;;;;;;17.56;89.96;98799.81;6159503;23;20166;-81
2023/04/23 07:18:19;;;;;;;7.30;5.63;;;;;;;17.74;89.36;98804.53;6135029;23;20201;-81
2023/04/23 07:20:46;;;;;;;7.63;5.40;;;;;;;17.77;88.98;98808.59;6135139;23;20209;-80
2023/04/23 07:23:13;;;;;;;7.60;5.33;;;;;;;17.92;89.40;98803.81;6133302;23;20265;-80
2023/04/23 07:25:39;;;;;;;7.10;5.77;;;;;;;18.04;89.21;98806.94;6159238;23;20255;-81
2023/04/23 07:28:06;;;;;;;6.83;5.83;;;;;;;18.11;88.24;98809.28;6159343;23;20237;-81
2023/04/23 07:30:33;;;;;;;7.53;6.10;;;;;;;18.28;89.28;98798.00;6135024;23;20729;-80
2023/04/23 07:32:59;;;;;;;10.00;5.67;;;;;;;18.51;87.58;98812.63;6158774;23;20257;-82
2023/04/23 07:35:26;;;;;;;6.50;5.90;;;;;;;18.72;85.69;98797.72;6135013;23;20177;-81
2023/04/23 07:37:54;;;;;;;6.40;5.90;;;;;;;18.79;85.56;98804.41;6159141;23;20169;-82
2023/04/23 07:40:22;;;;;;;6.57;5.83;;;;;;;18.71;84.83;98805.03;6135071;23;20169;-80
2023/04/23 07:42:49;;;;;;;8.47;5.80;;;;;;;18.84;83.23;98795.41;6158992;23;20225;-82
2023/04/23 07:45:17;;;;;;;7.23;5.37;;;;;;;18.95;82.45;98804.16;6133188;23;20170;-81
2023/04/23 07:47:45;;;;;;;7.60;5.30;;;;;;;18.99;82.73;98799.78;6158983;23;20723;-81
2023/04/23 07:50:12;;;;;;;8.40;5.63;;;;;;;19.11;82.66;98803.66;6159453;23;20179;-81
2023/04/23 07:52:39;;;;;;;5.40;5.00;;;;;;;19.12;82.51;98805.28;6158924;23;20175;-81
2023/04/23 07:55:07;;;;;;;6.03;4.93;;;;;;;19.13;83.50;98797.94;6159134;23;20213;-81
2023/04/23 07:57:33;;;;;;;6.43;5.00;;;;;;;19.20;83.16;98795.66;6184175;23;20174;-81
2023/04/23 08:00:01;;;;;;;7.20;5.90;;;;;;;19.42;82.49;98800.44;6159000;23;20193;-82
2023/04/23 08:02:37;;;;;;;6.03;5.20;;;;;;;19.62;80.61;98800.94;6161570;23;20175;-83
2023/04/23 08:05:05;;;;;;;5.20;4.73;;;;;;;19.78;79.76;98809.66;6158690;23;20173;-82
2023/04/23 08:07:32;;;;;;;5.73;4.90;;;;;;;19.86;78.51;98798.09;6135268;23;20178;-82
2023/04/23 08:10:03;;;;;;;7.00;5.33;;;;;;;19.89;80.61;98802.91;6181140;23;20747;-82
2023/04/23 08:12:29;;;;;;;6.00;5.07;;;;;;;20.13;80.69;98800.81;6158638;23;20172;-80
2023/04/23 08:14:56;;;;;;;7.40;5.63;;;;;;;20.00;79.05;98801.63;6182753;23;20162;-81
2023/04/23 08:17:30;;;;;;;5.90;5.30;;;;;;;20.15;77.39;98793.19;6159156;23;20211;-81
2023/04/23 08:19:57;;;;;;;5.30;4.80;;;;;;;20.34;76.75;98801.28;6132581;23;20177;-80
2023/04/23 08:22:23;;;;;;;5.73;5.20;;;;;;;20.46;76.65;98795.28;6182428;23;20169;-81
2023/04/23 08:24:50;;;;;;;7.00;5.40;;;;;;;20.25;76.19;98800.31;6132571;23;20211;-81
2023/04/23 08:27:17;;;;;;;5.83;5.23;;;;;;;20.22;76.03;98795.47;6158211;23;20226;-81
2023/04/23 08:29:43;;;;;;;5.33;4.83;;;;;;;20.33;76.41;98796.13;6181854;23;20169;-81
2023/04/23 08:32:10;;;;;;;6.10;5.43;;;;;;;20.35;75.37;98796.59;6157620;23;20175;-81
2023/04/23 08:34:37;;;;;;;5.10;4.57;;;;;;;20.41;75.79;98789.97;6157142;23;20208;-80
2023/04/23 08:37:04;;;;;;;6.23;5.57;;;;;;;20.88;74.44;98786.75;6133183;23;20173;-81
2023/04/23 08:39:32;;;;;;;5.40;4.90;;;;;;;21.24;72.94;98797.63;6183234;23;20177;-81
2023/04/23 08:42:19;;;;;;;6.63;4.80;;;;;;;21.52;71.27;98788.22;6184232;23;20615;-80
2023/04/23 08:44:46;;;;;;;4.77;4.37;;;;;;;21.72;70.76;98786.88;6157879;23;20196;-82
2023/04/23 08:47:16;;;;;;;5.30;4.80;;;;;;;22.09;68.12;98782.91;6157792;23;20191;-82
2023/04/23 08:49:44;;;;;;;5.33;4.83;;;;;;;22.43;67.76;98774.03;6133178;23;20166;-82
2023/04/23 08:52:16;;;;;;;6.50;4.87;;;;;;;22.75;67.99;98778.31;6158055;23;20171;-80
2023/04/23 08:54:48;;;;;;;7.37;5.00;;;;;;;23.11;65.99;98773.31;6133341;23;20160;-82
2023/04/23 08:57:16;;;;;;;6.82;4.57;;;;;;;23.43;65.66;98771.19;6182087;23;20174;-80
2023/04/23 08:59:45;;;;;;;5.07;4.57;;;;;;;23.52;63.13;98772.00;6183607;23;20228;-81
2023/04/23 09:02:13;;;;;;;5.30;4.80;;;;;;;23.23;62.39;98765.28;6133626;23;20620;-79
2023/04/23 09:04:40;;;;;;;5.50;4.93;;;;;;;23.05;62.95;98771.88;6157755;23;20220;-80
2023/04/23 09:07:10;;;;;;;5.07;4.60;;;;;;;23.33;62.39;98766.09;6157957;23;20610;-80
2023/04/23 09:09:38;;;;;;;5.45;4.30;;;;;;;23.30;60.23;98764.78;6133514;23;20206;-80
2023/04/23 09:12:06;;;;;;;5.05;4.53;;;;;;;23.44;61.03;98759.13;6157684;23;20249;-79
2023/04/23 09:14:33;;;;;;;6.38;4.35;;;;;;;;;;6133044;23;20178;-81
2023/04/23 09:17:02;;;;;;;4.68;4.22;;;;;;;23.43;60.22;98761.06;6181962;23;20170;-80
2023/04/23 09:19:29;;;;;;;4.90;4.50;;;;;;;23.49;60.34;98761.72;6132877;23;20254;-80
2023/04/23 09:21:57;;;;;;;4.55;4.22;;;;;;;23.57;59.54;98758.16;6157776;23;20244;-81
2023/04/23 09:24:24;;;;;;;6.75;4.50;;;;;;;23.61;58.21;98757.19;6157082;23;20206;-80
2023/04/23 09:26:51;;;;;;;5.60;4.40;;;;;;;23.65;58.09;98760.09;6133068;23;20182;-79
2023/04/23 09:29:22;;;;;;;4.45;3.92;;;;;;;23.86;56.51;98750.03;6157229;23;20181;-81
2023/04/23 09:31:50;;;;;;;4.00;3.60;;;;;;;23.93;55.03;98752.28;6156792;23;20194;-80
2023/04/23 09:34:21;;;;;;;7.00;4.28;;;;;;;24.04;54.41;98745.28;6157422;23;20173;-79
2023/04/23 09:36:50;;;;;;;5.35;4.10;;;;;;;24.11;54.13;98751.06;6155420;23;20167;-79
2023/04/23 09:39:21;;;;;;;5.15;3.72;;;;;;;23.92;54.53;98737.78;6155365;23;20167;-79
2023/04/23 09:41:50;;;;;;;5.65;4.90;;;;;;;23.95;55.45;98741.78;6156329;23;20170;-81
2023/04/23 09:44:18;;;;;;;6.65;5.93;;;;;;;24.29;56.06;98738.91;6180590;23;20192;-80
2023/04/23 09:46:45;;;;;;;5.60;3.90;;;;;;;24.35;54.45;98734.88;6157505;23;20189;-81
2023/04/23 09:49:12;;;;;;;4.60;4.10;;;;;;;24.55;54.09;98733.25;6155997;23;20245;-81
2023/04/23 09:51:47;;;;;;;5.20;4.32;;;;;;;24.62;54.47;98727.28;6132191;23;20201;-81
2023/04/23 09:54:22;;;;;;;7.07;6.40;;;;;;;24.06;55.09;98730.16;6157585;23;20539;-80
2023/04/23 09:56:51;;;;;;;5.20;4.50;;;;;;;24.21;54.62;98731.56;6131682;23;20229;-80
2023/04/23 09:59:23;;;;;;;4.80;4.35;;;;;;;24.55;53.89;98725.84;6153088;23;20201;-80
2023/04/23 10:02:10;;;;;;;5.30;3.83;;;;;;;24.72;54.01;98721.41;6179628;23;20623;-82
2023/04/23 10:04:37;;;;;;;4.60;4.20;;;;;;;24.76;54.96;98720.41;6157217;23;20190;-80
2023/04/23 10:07:07;;;;;;;4.32;3.88;;;;;;;24.72;53.87;98710.44;6157710;23;20197;-80
2023/04/23 10:09:45;;;;;;;4.28;3.78;;;;;;;24.65;52.69;98710.16;6137765;23;20174;-80
2023/04/23 10:12:13;;;;;;;5.07;4.20;;;;;;;24.11;52.41;98707.28;6157574;23;20174;-80
2023/04/23 10:14:44;;;;;;;5.10;3.67;;;;;;;24.03;53.58;98703.44;6181997;23;20155;-81
2023/04/23 10:17:10;;;;;;;4.22;3.92;;;;;;;24.31;52.84;98692.84;6157657;23;20177;-80
2023/04/23 10:19:39;;;;;;;4.70;4.30;;;;;;;23.47;53.27;98699.16;6133316;23;20205;-80
2023/04/23 10:22:10;;;;;;;6.18;4.28;;;;;;;23.62;53.27;98690.44;6133474;23;20241;-80
2023/04/23 10:24:51;;;;;;;6.25;4.05;;;;;;;23.90;53.26;98688.06;6163573;23;20197;-81
2023/04/23 10:27:19;;;;;;;5.05;3.88;;;;;;;23.91;55.04;98677.94;6108421;23;20600;-81
2023/04/23 10:29:49;;;;;;;4.32;3.92;;;;;;;24.23;56.17;98674.56;6133256;23;20262;-81
2023/04/23 10:32:16;;;;;;;7.43;4.10;;;;;;;24.31;53.27;98673.69;6132784;23;20173;-80
2023/04/23 10:34:43;;;;;;;4.50;3.75;;;;;;;24.41;53.00;98670.56;6132619;23;20176;-80
2023/04/23 10:37:10;;;;;;;4.30;3.90;;;;;;;24.52;53.69;98666.28;6157872;23;20695;-81
2023/04/23 10:39:37;;;;;;;5.20;3.78;;;;;;;24.63;52.54;98671.38;6158901;23;20249;-80
2023/04/23 10:42:04;;;;;;;4.85;3.88;;;;;;;24.77;51.70;98663.69;6134745;23;20174;-80
2023/04/23 10:44:36;;;;;;;3.97;3.67;;;;;;;24.84;51.47;98653.78;6184891;23;20183;-80
2023/04/23 10:47:05;;;;;;;5.32;4.10;;;;;;;25.12;52.23;98666.91;6112061;23;20195;-80
2023/04/23 10:49:33;;;;;;;4.47;4.03;;;;;;;25.31;51.77;98667.19;6185089;23;20222;-80
2023/04/23 10:52:14;;;;;;;4.65;4.13;;;;;;;25.47;50.96;98650.88;6134708;23;20201;-80
2023/04/23 10:54:48;;;;;;;4.60;3.70;;;;;;;25.38;49.16;98664.69;6135734;23;20213;-80
2023/04/23 10:57:15;;;;;;;4.80;3.78;;;;;;;25.44;49.89;98658.63;6159103;23;20537;-79
2023/04/23 10:59:53;;;;;;;4.07;3.67;;;;;;;25.33;49.98;98645.72;6184912;23;20190;-81
2023/04/23 11:02:22;;;;;;;3.90;3.60;;;;;;;25.39;50.75;98645.16;6159324;23;20173;-80
2023/04/23 11:04:55;;;;;;;4.18;3.78;;;;;;;25.48;51.68;98638.75;6184673;23;20277;-80
2023/04/23 11:07:30;;;;;;;4.00;3.60;;;;;;;25.70;49.96;98643.84;6135229;23;20193;-80
2023/04/23 11:10:11;;;;;;;4.03;3.63;;;;;;;25.91;48.40;98647.25;6110514;23;20596;-80
2023/04/23 11:12:38;;;;;;;3.92;3.50;;;;;;;26.13;48.17;98641.28;6134584;23;20163;-81
2023/04/23 11:15:15;;;;;;;3.80;3.42;;;;;;;26.19;47.87;98630.88;6134562;23;20169;-80
2023/04/23 11:17:42;;;;;;;5.35;3.50;;;;;;;26.33;46.98;98633.28;6134726;23;20604;-79
2023/04/23 11:20:19;;;;;;;4.68;3.55;;;;;;;26.35;45.65;98625.50;6158743;23;20170;-78
2023/04/23 11:22:50;;;;;;;5.18;3.50;;;;;;;26.42;45.26;98617.47;6133912;23;20520;-80
2023/04/23 11:25:29;;;;;;;6.55;3.70;;;;;;;26.35;45.54;98623.56;6159106;23;20174;-80
2023/04/23 11:28:00;;;;;;;3.83;3.53;;;;;;;26.57;44.79;98616.72;6111001;23;20252;-79
2023/04/23 11:30:28;;;;;;;4.05;3.75;;;;;;;26.74;44.17;98627.41;6134648;23;20200;-79
2023/04/23 11:32:56;;;;;;;4.90;3.72;;;;;;;26.93;44.46;98615.78;6110040;23;20261;-80
2023/04/23 11:35:29;;;;;;;6.45;5.03;;;;;;;27.03;43.66;98613.34;6109799;23;20170;-81
2023/04/23 11:37:56;;;;;;;5.35;4.25;;;;;;;27.06;43.25;98615.38;6134662;23;20604;-80